Terminal Aerodrome Forecast
Issued by NWS

Home | Current Version | Previous Version | Text Only | Print | Product List | Glossary On
Versions: 1 2 3 4 5 6 7 8 9 10 11 12 13 14 15
737
FTUS46 KHNX 122329
TAFMCE
TAF
KMCE 122329Z 1300/1324 VRB05KT P6SM SKC
     FM130300 VRB03KT 4SM BR SKC
      TEMPO 1307/1311 1SM BR SKC
     FM131100 VRB02KT 1SM BR SKC
      TEMPO 1313/1317 1/4SM FG SKC
     FM131800 VRB02KT 3SM HZ SKC
     FM132000 VRB03KT 5SM HZ SKC=

USA.gov is the U.S. government's official web portal to all federal, state and local government web resources and services.